Time;durP1;ratioP1;P1;durP2;ratioP2;P2;SDS_P1;SDS_P2;PMS_P1;PMS_P2;Temp;Humidity;BMP_temperature;BMP_pressure;BME280_temperature;BME280_humidity;BME280_pressure;Samples;Min_cycle;Max_cycle;Signal;HPM_P1;HPM_P2
2023/10/18 00:00:04;;;;;;;;;;;3.80;99.90;;;;;;5083949;28;20046;-72
2023/10/18 00:02:31;;;;;;;;;;;3.70;99.90;;;;;;5087594;28;19924;-71
2023/10/18 00:04:58;;;;;;;;;;;3.70;99.90;;;;;;5090188;28;20632;-72
2023/10/18 00:07:24;;;;;;;;;;;3.70;99.90;;;;;;5084815;28;20382;-71
2023/10/18 00:09:51;;;;;;;;;;;3.60;99.90;;;;;;5094192;28;20292;-72
2023/10/18 00:12:18;;;;;;;;;;;3.60;99.90;;;;;;5091561;28;19970;-71
2023/10/18 00:14:46;;;;;;;;;;;3.60;99.90;;;;;;5087888;28;19941;-72
2023/10/18 00:17:13;;;;;;;;;;;3.50;99.90;;;;;;5091238;28;19970;-72
2023/10/18 00:19:40;;;;;;;;;;;3.50;99.90;;;;;;5093731;28;19935;-72
2023/10/18 00:22:09;;;;;;;;;;;3.50;99.90;;;;;;5093767;28;19924;-71
2023/10/18 00:24:36;;;;;;;;;;;3.50;99.90;;;;;;5088258;28;20404;-71
2023/10/18 00:27:03;;;;;;;;;;;3.50;99.90;;;;;;5093632;28;20399;-71
2023/10/18 00:29:30;;;;;;;;;;;3.40;99.90;;;;;;5093976;28;19978;-71
2023/10/18 00:31:59;;;;;;;;;;;3.50;99.90;;;;;;5086368;28;20348;-71
2023/10/18 00:34:25;;;;;;;;;;;3.50;99.90;;;;;;5094085;28;20003;-72
2023/10/18 00:36:52;;;;;;;;;;;3.50;99.90;;;;;;5089249;28;19924;-72
2023/10/18 00:39:27;;;;;;;;;;;3.50;99.90;;;;;;5083738;28;19924;-71
2023/10/18 00:41:54;;;;;;;;;;;3.50;99.90;;;;;;5093747;28;19924;-72
2023/10/18 00:44:22;;;;;;;;;;;3.50;99.90;;;;;;5084848;28;19928;-71
2023/10/18 00:46:49;;;;;;;;;;;3.50;99.90;;;;;;5086981;28;19924;-72
2023/10/18 00:49:17;;;;;;;;;;;3.50;99.90;;;;;;5085679;28;19977;-72
2023/10/18 00:51:44;;;;;;;;;;;3.50;99.90;;;;;;5089112;28;20298;-72
2023/10/18 00:54:11;;;;;;;;;;;3.60;99.90;;;;;;5092315;28;20018;-72
2023/10/18 00:56:39;;;;;;;;;;;3.60;99.90;;;;;;5076419;28;20012;-72
2023/10/18 00:59:07;;;;;;;;;;;3.50;99.90;;;;;;5078495;28;20471;-71
2023/10/18 01:01:35;;;;;;;;;;;3.50;99.90;;;;;;5086275;28;19966;-72
2023/10/18 01:04:04;;;;;;;;;;;3.50;99.90;;;;;;5087704;28;19969;-71
2023/10/18 01:06:32;;;;;;;;;;;3.40;99.90;;;;;;5082659;28;19964;-72
2023/10/18 01:08:58;;;;;;;;;;;3.40;99.90;;;;;;5089537;28;19977;-71
2023/10/18 01:11:28;;;;;;;;;;;3.40;99.90;;;;;;5080374;28;20030;-71
2023/10/18 01:13:55;;;;;;;;;;;3.40;99.90;;;;;;5080329;28;19925;-72
2023/10/18 01:16:22;;;;;;;;;;;3.40;99.90;;;;;;5086190;28;19928;-72
2023/10/18 01:18:50;;;;;;;;;;;3.40;99.90;;;;;;5083540;28;19931;-71
2023/10/18 01:21:18;;;;;;;;;;;3.40;99.90;;;;;;5082392;28;19931;-72
2023/10/18 01:23:49;;;;;;;;;;;3.30;99.90;;;;;;5077233;28;19924;-72
2023/10/18 01:26:17;;;;;;;;;;;3.30;99.90;;;;;;5082342;28;19932;-72
2023/10/18 01:28:44;;;;;;;;;;;3.30;99.90;;;;;;5088885;28;19924;-72
2023/10/18 01:31:12;;;;;;;;;;;3.20;99.90;;;;;;5087676;28;20386;-72
2023/10/18 01:33:43;;;;;;;;;;;3.20;99.90;;;;;;5084687;28;19932;-72
2023/10/18 01:36:13;;;;;;;;;;;3.20;99.90;;;;;;5079001;28;20011;-71
2023/10/18 01:38:42;;;;;;;;;;;3.10;99.90;;;;;;5080330;28;19924;-71
2023/10/18 01:41:12;;;;;;;;;;;3.20;99.90;;;;;;5086183;28;19924;-72
2023/10/18 01:43:41;;;;;;;;;;;3.20;99.90;;;;;;5082768;28;19925;-72
2023/10/18 01:46:08;;;;;;;;;;;3.20;99.90;;;;;;5088977;28;19924;-71
2023/10/18 01:48:37;;;;;;;;;;;3.20;99.90;;;;;;5092855;28;20339;-72
2023/10/18 01:51:05;;;;;;;;;;;3.20;99.90;;;;;;5074862;28;20378;-72
2023/10/18 01:53:32;;;;;;;;;;;3.20;99.90;;;;;;5081209;28;20019;-71
2023/10/18 01:56:01;;;;;;;;;;;3.10;99.90;;;;;;5084167;28;19977;-72
2023/10/18 01:58:29;;;;;;;;;;;3.20;99.90;;;;;;5085239;28;19928;-71
2023/10/18 02:00:57;;;;;;;;;;;3.10;99.90;;;;;;5090563;28;19924;-72
2023/10/18 02:03:24;;;;;;;;;;;3.10;99.90;;;;;;5084282;28;20405;-72
2023/10/18 02:05:50;;;;;;;;;;;3.10;99.90;;;;;;5085183;28;20049;-71
2023/10/18 02:08:17;;;;;;;;;;;3.10;99.90;;;;;;5084188;28;19950;-72
2023/10/18 02:10:44;;;;;;;;;;;3.10;99.90;;;;;;5089281;28;20294;-72
2023/10/18 02:13:14;;;;;;;;;;;3.00;99.90;;;;;;5088491;28;19924;-72
2023/10/18 02:15:40;;;;;;;;;;;3.00;99.90;;;;;;5089046;28;19970;-72
2023/10/18 02:18:09;;;;;;;;;;;3.10;99.90;;;;;;5082813;28;19925;-72
2023/10/18 02:20:37;;;;;;;;;;;3.10;99.90;;;;;;5079925;28;20603;-72
2023/10/18 02:23:07;;;;;;;;;;;3.10;99.90;;;;;;5082882;28;19968;-72
2023/10/18 02:25:42;;;;;;;;;;;3.00;99.90;;;;;;5086643;28;20019;-72
2023/10/18 02:28:09;;;;;;;;;;;3.00;99.90;;;;;;5090094;28;20409;-72
2023/10/18 02:30:36;;;;;;;;;;;3.00;99.90;;;;;;5083751;28;19931;-72
2023/10/18 02:33:04;;;;;;;;;;;2.90;99.90;;;;;;5081560;28;19925;-72
2023/10/18 02:35:33;;;;;;;;;;;2.90;99.90;;;;;;5082886;28;19928;-71
2023/10/18 02:38:08;;;;;;;;;;;2.90;99.90;;;;;;5086450;28;19931;-72
2023/10/18 02:40:38;;;;;;;;;;;2.90;99.90;;;;;;5088036;28;19932;-72
2023/10/18 02:43:08;;;;;;;;;;;2.90;99.90;;;;;;5085209;28;19924;-72
2023/10/18 02:45:34;;;;;;;;;;;2.90;99.90;;;;;;5078593;28;19930;-72
2023/10/18 02:48:01;;;;;;;;;;;2.90;99.90;;;;;;5088588;28;20554;-72
2023/10/18 02:50:30;;;;;;;;;;;2.90;99.90;;;;;;5081215;28;19929;-72
2023/10/18 02:53:00;;;;;;;;;;;2.90;99.90;;;;;;5087395;28;19931;-72
2023/10/18 02:55:27;;;;;;;;;;;2.90;99.90;;;;;;5089492;28;19985;-72
2023/10/18 02:57:56;;;;;;;;;;;2.90;99.90;;;;;;5088985;28;20047;-72
2023/10/18 03:00:25;;;;;;;;;;;2.90;99.90;;;;;;5085703;28;20394;-72
2023/10/18 03:02:51;;;;;;;;;;;2.90;99.90;;;;;;5081673;28;19928;-71
2023/10/18 03:05:19;;;;;;;;;;;2.90;99.90;;;;;;5085570;28;19970;-72
2023/10/18 03:07:46;;;;;;;;;;;2.90;99.90;;;;;;5087286;28;19928;-71
2023/10/18 03:10:25;;;;;;;;;;;2.90;99.90;;;;;;5093786;28;19928;-72
2023/10/18 03:12:52;;;;;;;;;;;2.90;99.90;;;;;;5082353;28;19930;-72
2023/10/18 03:15:21;;;;;;;;;;;2.90;99.90;;;;;;5086365;28;19924;-72
2023/10/18 03:17:49;;;;;;;;;;;2.90;99.90;;;;;;5084620;28;19928;-71
2023/10/18 03:20:20;;;;;;;;;;;2.90;99.90;;;;;;5086601;28;19967;-71
2023/10/18 03:22:49;;;;;;;;;;;2.90;99.90;;;;;;5088721;28;20011;-71
2023/10/18 03:25:26;;;;;;;;;;;2.90;99.90;;;;;;5078346;28;19979;-72
2023/10/18 03:27:57;;;;;;;;;;;2.90;99.90;;;;;;5083424;28;19924;-72
2023/10/18 03:30:40;;;;;;;;;;;2.90;99.90;;;;;;5078627;28;19935;-72
2023/10/18 03:33:07;;;;;;;;;;;2.90;99.90;;;;;;5085468;28;19985;-72
2023/10/18 03:35:38;;;;;;;;;;;2.90;99.90;;;;;;5085843;28;20391;-72
2023/10/18 03:38:15;;;;;;;;;;;2.80;99.90;;;;;;5079702;28;19928;-72
2023/10/18 03:40:47;;;;;;;;;;;2.80;99.90;;;;;;5085511;28;19969;-72
2023/10/18 03:43:15;;;;;;;;;;;2.80;99.90;;;;;;5081142;28;19933;-72
2023/10/18 03:48:46;;;;;;;;;;;2.80;99.90;;;;;;5094262;27;19916;-71
2023/10/18 03:51:18;;;;;;;;;;;2.80;99.90;;;;;;5090591;28;19977;-72
2023/10/18 03:53:45;;;;;;;;;;;2.80;99.90;;;;;;5092222;28;20377;-72
2023/10/18 03:56:13;;;;;;;;;;;2.80;99.90;;;;;;5086090;28;19981;-72
2023/10/18 03:58:48;;;;;;;;;;;2.80;99.90;;;;;;5074207;28;19963;-72
2023/10/18 04:01:19;;;;;;;;;;;2.80;99.90;;;;;;5072169;28;19928;-72
2023/10/18 04:03:49;;;;;;;;;;;2.80;99.90;;;;;;5072255;28;19925;-72
2023/10/18 04:06:23;;;;;;;;;;;2.80;99.90;;;;;;5071325;28;19948;-72
2023/10/18 04:08:49;;;;;;;;;;;2.80;99.90;;;;;;5069216;28;19925;-72
2023/10/18 04:11:24;;;;;;;;;;;2.80;99.90;;;;;;5072945;28;19925;-72
2023/10/18 04:13:51;;;;;;;;;;;2.80;99.90;;;;;;5073251;28;20018;-72
2023/10/18 04:16:18;;;;;;;;;;;2.80;99.90;;;;;;5070446;28;19924;-71
2023/10/18 04:18:45;;;;;;;;;;;2.80;99.90;;;;;;5070781;28;19933;-72
2023/10/18 04:21:15;;;;;;;;;;;2.70;99.90;;;;;;5071968;28;19929;-72
2023/10/18 04:23:46;;;;;;;;;;;2.70;99.90;;;;;;5074460;28;19931;-71
2023/10/18 04:26:18;;;;;;;;;;;2.70;99.90;;;;;;5072293;28;20015;-72
2023/10/18 04:28:45;;;;;;;;;;;2.70;99.90;;;;;;5072372;28;19933;-72
2023/10/18 04:31:14;;;;;;;;;;;2.70;99.90;;;;;;5070072;28;20446;-72
2023/10/18 04:33:42;;;;;;;;;;;2.70;99.90;;;;;;5070603;28;19924;-72
2023/10/18 04:36:10;;;;;;;;;;;2.70;99.90;;;;;;5069502;28;20306;-71
2023/10/18 04:38:42;;;;;;;;;;;2.60;99.90;;;;;;5074176;28;19925;-71
2023/10/18 04:41:10;;;;;;;;;;;2.60;99.90;;;;;;5072738;28;19932;-71
2023/10/18 04:43:36;;;;;;;;;;;2.50;99.90;;;;;;5070365;28;19928;-71
2023/10/18 04:46:07;;;;;;;;;;;2.50;99.90;;;;;;5068529;28;19970;-71
2023/10/18 04:51:27;;;;;;;;;;;2.50;99.90;;;;;;5071927;28;19928;-71
2023/10/18 04:53:57;;;;;;;;;;;2.50;99.90;;;;;;5073195;28;19970;-72
2023/10/18 04:56:29;;;;;;;;;;;2.50;99.90;;;;;;5068168;28;19924;-71
2023/10/18 04:58:59;;;;;;;;;;;2.50;99.90;;;;;;5065008;28;20012;-71
2023/10/18 05:01:32;;;;;;;;;;;2.60;99.90;;;;;;5055656;28;19971;-73
2023/10/18 05:04:00;;;;;;;;;;;2.50;99.90;;;;;;5056752;28;20335;-72
2023/10/18 05:06:29;;;;;;;;;;;2.50;99.90;;;;;;5059807;28;19983;-72
2023/10/18 05:08:57;;;;;;;;;;;2.60;99.90;;;;;;5056928;28;19964;-72
2023/10/18 05:11:22;;;;;;;;;;;2.50;99.90;;;;;;5055223;28;20423;-72
2023/10/18 05:13:49;;;;;;;;;;;2.50;99.90;;;;;;5055670;28;19921;-72
2023/10/18 05:16:16;;;;;;;;;;;2.60;99.90;;;;;;5056278;28;19933;-72
2023/10/18 05:18:44;;;;;;;;;;;2.50;99.90;;;;;;5053751;28;19925;-72
2023/10/18 05:21:20;;;;;;;;;;;2.50;99.90;;;;;;5047767;28;20023;-72
2023/10/18 05:23:49;;;;;;;;;;;2.50;99.90;;;;;;5044806;28;20781;-72
2023/10/18 05:26:18;;;;;;;;;;;2.50;99.90;;;;;;5050974;28;20028;-73
2023/10/18 05:28:49;;;;;;;;;;;2.50;99.90;;;;;;5056042;28;19925;-72
2023/10/18 05:31:44;;;;;;;;;;;2.50;99.90;;;;;;5059197;28;19971;-72
2023/10/18 05:34:19;;;;;;;;;;;2.50;99.90;;;;;;5050743;28;20300;-72
2023/10/18 05:36:55;;;;;;;;;;;2.50;99.90;;;;;;5051629;28;19925;-72
2023/10/18 05:39:28;;;;;;;;;;;2.50;99.90;;;;;;5055238;28;19968;-72
2023/10/18 05:42:03;;;;;;;;;;;2.50;99.90;;;;;;5060943;28;19924;-72
2023/10/18 05:44:30;;;;;;;;;;;2.60;99.90;;;;;;5059266;28;19971;-72
2023/10/18 05:46:57;;;;;;;;;;;2.60;99.90;;;;;;5056936;28;19931;-72
2023/10/18 05:49:28;;;;;;;;;;;2.60;99.90;;;;;;5059544;28;19931;-72
2023/10/18 05:51:58;;;;;;;;;;;2.60;99.90;;;;;;5056149;28;19932;-72
2023/10/18 05:54:28;;;;;;;;;;;2.60;99.90;;;;;;5059422;28;20382;-72
2023/10/18 05:56:56;;;;;;;;;;;2.60;99.90;;;;;;5060880;28;20340;-72
2023/10/18 05:59:31;;;;;;;;;;;2.60;99.90;;;;;;5059743;28;19928;-71
2023/10/18 06:02:00;;;;;;;;;;;2.60;99.90;;;;;;5058054;28;19928;-70
2023/10/18 06:04:28;;;;;;;;;;;2.70;99.90;;;;;;5054957;28;19928;-71
2023/10/18 06:06:58;;;;;;;;;;;2.70;99.90;;;;;;5057267;28;19991;-71
2023/10/18 06:09:27;;;;;;;;;;;2.70;99.90;;;;;;5059223;28;19925;-71
2023/10/18 06:11:56;;;;;;;;;;;2.80;99.90;;;;;;5060362;28;19931;-71
2023/10/18 06:14:25;;;;;;;;;;;2.80;99.90;;;;;;5059169;28;19931;-71
2023/10/18 06:16:52;;;;;;;;;;;2.80;99.90;;;;;;5056449;28;19932;-70
2023/10/18 06:19:22;;;;;;;;;;;2.90;99.90;;;;;;5055915;28;19992;-71
2023/10/18 06:21:57;;;;;;;;;;;2.90;99.90;;;;;;5057269;28;19931;-71
2023/10/18 06:24:25;;;;;;;;;;;2.90;99.90;;;;;;5060510;28;19924;-71
2023/10/18 06:26:52;;;;;;;;;;;3.00;99.90;;;;;;5061440;28;19931;-71
2023/10/18 06:29:23;;;;;;;;;;;3.10;99.90;;;;;;5052027;28;20390;-71
2023/10/18 06:31:50;;;;;;;;;;;3.10;99.90;;;;;;5056954;28;19924;-71
2023/10/18 06:34:17;;;;;;;;;;;3.20;99.90;;;;;;5057135;28;20390;-71
2023/10/18 06:36:44;;;;;;;;;;;3.30;99.90;;;;;;5061211;28;19924;-71
2023/10/18 06:39:24;;;;;;;;;;;3.30;99.90;;;;;;5058748;28;20391;-71
2023/10/18 06:41:52;;;;;;;;;;;3.40;99.90;;;;;;5056686;28;19930;-71
2023/10/18 06:44:18;;;;;;;;;;;3.50;99.90;;;;;;5052111;28;19929;-71
2023/10/18 06:46:47;;;;;;;;;;;3.50;99.90;;;;;;5052609;28;19928;-70
2023/10/18 06:49:14;;;;;;;;;;;3.60;99.90;;;;;;5054981;28;19931;-71
2023/10/18 06:51:43;;;;;;;;;;;3.70;99.90;;;;;;5058938;28;19928;-71
2023/10/18 06:54:13;;;;;;;;;;;3.80;99.90;;;;;;5059653;28;19925;-70
2023/10/18 06:56:40;;;;;;;;;;;3.90;99.90;;;;;;5059532;28;19955;-70
2023/10/18 06:59:07;;;;;;;;;;;4.00;99.90;;;;;;5052870;28;19925;-70
2023/10/18 07:01:33;;;;;;;;;;;4.10;99.90;;;;;;5054803;28;20354;-70
2023/10/18 07:04:01;;;;;;;;;;;4.20;99.90;;;;;;5059768;28;19975;-70
2023/10/18 07:06:35;;;;;;;;;;;4.30;99.90;;;;;;5060327;28;19970;-71
2023/10/18 07:09:09;;;;;;;;;;;4.40;99.90;;;;;;5059690;28;20660;-71
2023/10/18 07:11:39;;;;;;;;;;;4.50;99.90;;;;;;5056106;28;19939;-68
2023/10/18 07:14:06;;;;;;;;;;;4.60;99.90;;;;;;5054269;28;19925;-68
2023/10/18 07:16:38;;;;;;;;;;;4.80;99.90;;;;;;5059712;28;19925;-71
2023/10/18 07:19:21;;;;;;;;;;;4.90;99.90;;;;;;5060269;28;20003;-71
2023/10/18 07:21:47;;;;;;;;;;;5.00;99.90;;;;;;5059358;28;19931;-71
2023/10/18 07:24:17;;;;;;;;;;;5.20;99.90;;;;;;5055605;28;19931;-70
2023/10/18 07:26:46;;;;;;;;;;;5.30;99.90;;;;;;5055559;28;20019;-68
2023/10/18 07:29:13;;;;;;;;;;;5.60;99.90;;;;;;5056935;28;20552;-68
2023/10/18 07:31:44;;;;;;;;;;;5.80;99.90;;;;;;5062582;28;20043;-68
2023/10/18 07:34:18;;;;;;;;;;;5.90;99.90;;;;;;5060088;28;19946;-68
2023/10/18 07:36:45;;;;;;;;;;;6.00;99.90;;;;;;5052324;28;20009;-68
2023/10/18 07:39:12;;;;;;;;;;;6.00;99.90;;;;;;5052506;28;19982;-69
2023/10/18 07:41:39;;;;;;;;;;;6.00;99.90;;;;;;5058911;28;19929;-69
2023/10/18 07:44:05;;;;;;;;;;;6.00;99.90;;;;;;5056222;28;19925;-69
2023/10/18 07:46:34;;;;;;;;;;;6.10;99.90;;;;;;5061124;28;19931;-69
2023/10/18 07:49:04;;;;;;;;;;;6.10;99.90;;;;;;5061581;28;19925;-69
2023/10/18 07:51:34;;;;;;;;;;;6.20;99.90;;;;;;5053222;28;19925;-68
2023/10/18 07:54:01;;;;;;;;;;;6.20;99.90;;;;;;5056358;28;19960;-69
2023/10/18 07:56:29;;;;;;;;;;;6.20;99.90;;;;;;5059235;28;19925;-69
2023/10/18 07:59:07;;;;;;;;;;;6.40;99.90;;;;;;5062517;28;19930;-69
2023/10/18 08:01:46;;;;;;;;;;;6.40;99.90;;;;;;5060206;28;20016;-69
2023/10/18 08:04:14;;;;;;;;;;;6.50;99.90;;;;;;5056157;28;19960;-69
2023/10/18 08:06:44;;;;;;;;;;;6.70;99.90;;;;;;5054865;28;20480;-69
2023/10/18 08:09:11;;;;;;;;;;;6.80;99.90;;;;;;5055810;28;20040;-68
2023/10/18 08:11:38;;;;;;;;;;;7.00;99.90;;;;;;5058050;28;20361;-69
2023/10/18 08:14:16;;;;;;;;;;;7.10;99.90;;;;;;5061767;28;19928;-69
2023/10/18 08:16:52;;;;;;;;;;;7.20;99.90;;;;;;5053865;28;20004;-69
2023/10/18 08:19:22;;;;;;;;;;;7.40;99.90;;;;;;5049433;28;19951;-69
2023/10/18 08:22:05;;;;;;;;;;;7.50;99.90;;;;;;5052074;28;20000;-69
2023/10/18 08:24:34;;;;;;;;;;;7.80;99.90;;;;;;5061507;28;19924;-69
2023/10/18 08:27:09;;;;;;;;;;;8.00;99.90;;;;;;5062032;28;19932;-69
2023/10/18 08:29:36;;;;;;;;;;;8.10;99.90;;;;;;5059970;28;19931;-69
2023/10/18 08:32:07;;;;;;;;;;;8.20;99.90;;;;;;5056017;28;19995;-69
2023/10/18 08:34:34;;;;;;;;;;;8.30;99.90;;;;;;5058624;28;19925;-69
2023/10/18 08:37:03;;;;;;;;;;;8.50;99.90;;;;;;5057845;28;19935;-69
2023/10/18 08:39:30;;;;;;;;;;;8.70;99.90;;;;;;5064745;28;20020;-69
2023/10/18 08:42:01;;;;;;;;;;;9.00;99.90;;;;;;5066710;28;19929;-69
2023/10/18 08:44:30;;;;;;;;;;;9.20;99.90;;;;;;5059996;28;19935;-69
2023/10/18 08:47:11;;;;;;;;;;;9.30;99.90;;;;;;5055210;28;19925;-69
2023/10/18 08:49:44;;;;;;;;;;;9.30;99.90;;;;;;5062630;28;19925;-69
2023/10/18 08:52:15;;;;;;;;;;;9.40;99.90;;;;;;5064362;28;19933;-69
2023/10/18 08:54:43;;;;;;;;;;;9.60;99.90;;;;;;5067523;28;19924;-69
2023/10/18 08:57:10;;;;;;;;;;;9.80;99.90;;;;;;5065298;28;19925;-69
2023/10/18 08:59:46;;;;;;;;;;;9.90;99.90;;;;;;5057906;28;19953;-69
2023/10/18 09:02:12;;;;;;;;;;;10.00;99.90;;;;;;5055830;28;19924;-69
2023/10/18 09:04:44;;;;;;;;;;;10.20;99.90;;;;;;5065336;28;19925;-69
2023/10/18 09:07:21;;;;;;;;;;;10.30;99.90;;;;;;5065348;28;20013;-69
2023/10/18 09:09:53;;;;;;;;;;;10.40;99.90;;;;;;5061261;28;19924;-69
2023/10/18 09:12:31;;;;;;;;;;;10.70;99.90;;;;;;5055365;28;19928;-69
2023/10/18 09:14:58;;;;;;;;;;;10.90;99.90;;;;;;5059270;28;19925;-69
2023/10/18 09:17:25;;;;;;;;;;;11.10;99.90;;;;;;5059110;28;19921;-69
2023/10/18 09:19:55;;;;;;;;;;;11.10;99.90;;;;;;5067541;28;19970;-69
2023/10/18 09:22:23;;;;;;;;;;;11.00;99.90;;;;;;5064239;28;19929;-69
2023/10/18 09:24:50;;;;;;;;;;;11.10;99.90;;;;;;5055343;28;19937;-70
2023/10/18 09:27:17;;;;;;;;;;;11.40;99.90;;;;;;5057542;28;19929;-69
2023/10/18 09:29:44;;;;;;;;;;;11.70;99.90;;;;;;5063982;28;19924;-69
2023/10/18 09:32:32;;;;;;;;;;;11.90;99.90;;;;;;5064672;28;20011;-69
2023/10/18 09:35:03;;;;;;;;;;;12.00;99.90;;;;;;5067380;28;20445;-69
2023/10/18 09:37:35;;;;;;;;;;;12.30;99.90;;;;;;5059747;28;20315;-70
2023/10/18 09:40:03;;;;;;;;;;;12.50;99.90;;;;;;5057890;28;20556;-70
2023/10/18 09:42:29;;;;;;;;;;;12.90;99.90;;;;;;5059988;28;19925;-70
2023/10/18 09:44:56;;;;;;;;;;;13.20;99.90;;;;;;5066819;28;19928;-69
2023/10/18 09:47:24;;;;;;;;;;;13.30;99.90;;;;;;5061945;28;19990;-69
2023/10/18 09:49:51;;;;;;;;;;;13.10;99.90;;;;;;5063455;28;19929;-70
2023/10/18 09:52:18;;;;;;;;;;;12.90;99.90;;;;;;5055255;28;19947;-70
2023/10/18 09:54:49;;;;;;;;;;;13.00;99.90;;;;;;5061660;28;20371;-72
2023/10/18 09:57:23;;;;;;;;;;;13.00;99.90;;;;;;5061000;28;19947;-70
2023/10/18 09:59:51;;;;;;;;;;;12.90;99.90;;;;;;5057713;28;20042;-70
2023/10/18 10:02:17;;;;;;;;;;;13.00;99.90;;;;;;5064966;28;19931;-70
2023/10/18 10:04:44;;;;;;;;;;;12.90;99.90;;;;;;5055318;28;20275;-70
2023/10/18 10:07:28;;;;;;;;;;;12.70;99.90;;;;;;5058201;28;19929;-70
2023/10/18 10:10:00;;;;;;;;;;;12.60;99.90;;;;;;5053175;28;19968;-70
2023/10/18 10:12:27;;;;;;;;;;;12.50;99.90;;;;;;5062622;28;19932;-70
2023/10/18 10:14:53;;;;;;;;;;;12.40;99.90;;;;;;5057881;28;20303;-70
2023/10/18 10:17:21;;;;;;;;;;;12.50;99.90;;;;;;5054904;28;19947;-70
2023/10/18 10:19:48;;;;;;;;;;;12.70;99.90;;;;;;5057235;28;19978;-70
2023/10/18 10:22:17;;;;;;;;;;;13.00;99.90;;;;;;5059542;28;19929;-70
2023/10/18 10:24:50;;;;;;;;;;;13.10;99.90;;;;;;5065493;28;19993;-70
2023/10/18 10:27:41;;;;;;;;;;;12.90;99.90;;;;;;5065313;28;19928;-70
2023/10/18 10:30:19;;;;;;;;;;;12.80;99.90;;;;;;5052693;28;19951;-70
2023/10/18 10:32:46;;;;;;;;;;;12.90;99.90;;;;;;5055576;28;20078;-70
2023/10/18 10:35:15;;;;;;;;;;;13.10;99.90;;;;;;5058968;28;20341;-70
2023/10/18 10:37:48;;;;;;;;;;;13.10;99.90;;;;;;5059865;28;19931;-70
2023/10/18 10:40:35;;;;;;;;;;;13.20;99.90;;;;;;5065356;28;19950;-70
2023/10/18 10:43:04;;;;;;;;;;;12.70;99.90;;;;;;5049085;28;19931;-70
2023/10/18 10:45:32;;;;;;;;;;;12.50;99.90;;;;;;5056145;28;20023;-70
2023/10/18 10:48:13;;;;;;;;;;;12.60;99.90;;;;;;5059087;28;20290;-70
2023/10/18 10:50:42;;;;;;;;;;;12.60;99.90;;;;;;5058733;28;20076;-70
2023/10/18 10:53:09;;;;;;;;;;;12.90;99.90;;;;;;5066708;28;20381;-70
2023/10/18 10:55:35;;;;;;;;;;;13.00;99.90;;;;;;5064159;28;20399;-70
2023/10/18 10:58:15;;;;;;;;;;;13.20;99.90;;;;;;5054064;28;19978;-70
2023/10/18 11:00:59;;;;;;;;;;;13.30;99.90;;;;;;5059602;28;19924;-70
2023/10/18 11:03:30;;;;;;;;;;;13.30;99.90;;;;;;5062277;28;19925;-71
2023/10/18 11:05:58;;;;;;;;;;;13.30;99.90;;;;;;5067360;28;19931;-70
2023/10/18 11:08:25;;;;;;;;;;;13.10;99.90;;;;;;5065114;28;19928;-70
2023/10/18 11:10:52;;;;;;;;;;;13.20;99.90;;;;;;5053856;28;19990;-70
2023/10/18 11:13:22;;;;;;;;;;;13.40;99.90;;;;;;5057046;28;19970;-70
2023/10/18 11:15:50;;;;;;;;;;;13.30;99.90;;;;;;5054196;28;19924;-70
2023/10/18 11:18:20;;;;;;;;;;;13.50;99.90;;;;;;5064063;28;19970;-70
2023/10/18 11:20:50;;;;;;;;;;;13.80;99.90;;;;;;5067678;28;20440;-70
2023/10/18 11:23:17;;;;;;;;;;;14.20;99.90;;;;;;5054273;28;20345;-70
2023/10/18 11:25:45;;;;;;;;;;;14.20;99.90;;;;;;5057835;28;19960;-70
2023/10/18 11:28:20;;;;;;;;;;;14.50;99.90;;;;;;5058923;28;19933;-70
2023/10/18 11:30:49;;;;;;;;;;;14.80;99.90;;;;;;5056004;28;20460;-71
2023/10/18 11:33:16;;;;;;;;;;;15.00;99.90;;;;;;5066432;28;19931;-70
2023/10/18 11:35:48;;;;;;;;;;;15.30;99.90;;;;;;5056205;28;19970;-70
2023/10/18 11:38:19;;;;;;;;;;;15.30;99.90;;;;;;5054755;28;19972;-70
2023/10/18 11:40:52;;;;;;;;;;;15.20;99.90;;;;;;5055465;28;19924;-70
2023/10/18 11:43:26;;;;;;;;;;;14.80;99.90;;;;;;5062178;28;20011;-70
2023/10/18 11:46:06;;;;;;;;;;;14.40;99.90;;;;;;5057215;28;20329;-70
2023/10/18 11:48:33;;;;;;;;;;;14.20;99.90;;;;;;5058383;28;19926;-70
2023/10/18 11:51:02;;;;;;;;;;;14.20;99.90;;;;;;5054847;28;19925;-70
2023/10/18 11:53:29;;;;;;;;;;;14.50;99.90;;;;;;5057290;28;19925;-70
2023/10/18 11:55:55;;;;;;;;;;;14.60;99.90;;;;;;5060418;28;19936;-70
2023/10/18 11:58:22;;;;;;;;;;;14.70;99.90;;;;;;5064144;28;20441;-70
2023/10/18 12:00:55;;;;;;;;;;;14.80;99.90;;;;;;5064156;28;19925;-70
2023/10/18 12:03:27;;;;;;;;;;;14.70;99.90;;;;;;5053724;28;19971;-70
2023/10/18 12:05:55;;;;;;;;;;;14.80;99.90;;;;;;5058282;28;20516;-70
2023/10/18 12:08:23;;;;;;;;;;;15.10;99.90;;;;;;5061180;28;19929;-70
2023/10/18 12:10:49;;;;;;;;;;;15.20;99.90;;;;;;5063744;28;20030;-70
2023/10/18 12:13:17;;;;;;;;;;;15.20;99.90;;;;;;5071706;28;19925;-70
2023/10/18 12:15:43;;;;;;;;;;;15.10;99.90;;;;;;5057327;28;19925;-70
2023/10/18 12:18:10;;;;;;;;;;;15.00;99.90;;;;;;5057892;28;20345;-70
2023/10/18 12:20:43;;;;;;;;;;;15.10;99.90;;;;;;5064651;28;19925;-70
2023/10/18 12:23:12;;;;;;;;;;;15.30;99.90;;;;;;5067890;28;19931;-70
2023/10/18 12:25:39;;;;;;;;;;;15.30;99.90;;;;;;5071231;28;19978;-70
2023/10/18 12:28:12;;;;;;;;;;;15.10;99.90;;;;;;5059597;28;19971;-70
2023/10/18 12:30:39;;;;;;;;;;;14.70;99.90;;;;;;5060053;28;20023;-70
2023/10/18 12:33:06;;;;;;;;;;;14.60;99.90;;;;;;5062459;28;19924;-70
2023/10/18 12:35:33;;;;;;;;;;;14.70;99.90;;;;;;5066428;28;20425;-70
2023/10/18 12:38:07;;;;;;;;;;;14.70;99.90;;;;;;5071061;28;19928;-70
2023/10/18 12:40:41;;;;;;;;;;;14.50;99.90;;;;;;5062330;28;19925;-70
2023/10/18 12:43:13;;;;;;;;;;;14.50;99.90;;;;;;5057845;28;19924;-70
2023/10/18 12:45:42;;;;;;;;;;;14.60;99.90;;;;;;5060957;28;19979;-70
2023/10/18 12:48:09;;;;;;;;;;;14.60;99.90;;;;;;5064236;28;19932;-70
2023/10/18 12:50:36;;;;;;;;;;;14.30;99.90;;;;;;5069283;28;20012;-70
2023/10/18 12:53:17;;;;;;;;;;;14.10;99.90;;;;;;5059138;28;19975;-70
2023/10/18 12:55:43;;;;;;;;;;;14.00;99.90;;;;;;5058069;28;19931;-70
2023/10/18 12:58:10;;;;;;;;;;;14.10;99.90;;;;;;5056949;28;19921;-70
2023/10/18 13:00:42;;;;;;;;;;;14.00;99.90;;;;;;5063763;28;19925;-70
2023/10/18 13:03:32;;;;;;;;;;;14.00;99.90;;;;;;5065240;28;19963;-70
2023/10/18 13:05:58;;;;;;;;;;;13.90;99.90;;;;;;5061776;28;19925;-70
2023/10/18 13:08:27;;;;;;;;;;;13.90;99.90;;;;;;5057150;28;19927;-70
2023/10/18 13:13:38;;;;;;;;;;;14.10;99.90;;;;;;5063785;28;19944;-70
2023/10/18 13:16:05;;;;;;;;;;;14.30;99.90;;;;;;5067081;28;20393;-70
2023/10/18 13:18:31;;;;;;;;;;;14.40;99.90;;;;;;5065267;28;19936;-70
2023/10/18 13:21:06;;;;;;;;;;;14.60;99.90;;;;;;5058011;28;19925;-70
2023/10/18 13:23:34;;;;;;;;;;;14.80;99.90;;;;;;5057278;28;20008;-70
2023/10/18 13:26:03;;;;;;;;;;;15.10;99.90;;;;;;5054140;28;19987;-72
2023/10/18 13:28:34;;;;;;;;;;;15.30;99.90;;;;;;5063427;28;20004;-71
2023/10/18 13:31:04;;;;;;;;;;;15.30;99.90;;;;;;5067810;28;20479;-70
2023/10/18 13:33:31;;;;;;;;;;;15.20;99.90;;;;;;5070150;28;20393;-70
2023/10/18 13:35:57;;;;;;;;;;;15.00;99.90;;;;;;5060955;28;20062;-70
2023/10/18 13:38:24;;;;;;;;;;;14.90;99.90;;;;;;5057975;28;19970;-70
2023/10/18 13:40:52;;;;;;;;;;;14.90;99.90;;;;;;5063749;28;19932;-70
2023/10/18 13:43:18;;;;;;;;;;;14.90;99.90;;;;;;5064586;28;19925;-70
2023/10/18 13:45:46;;;;;;;;;;;14.80;99.90;;;;;;5056409;28;20011;-70
2023/10/18 13:48:12;;;;;;;;;;;14.70;99.90;;;;;;5064965;28;19936;-70
2023/10/18 13:50:39;;;;;;;;;;;14.60;99.90;;;;;;5057231;28;19971;-71
2023/10/18 13:53:06;;;;;;;;;;;14.60;99.90;;;;;;5059595;28;19925;-70
2023/10/18 13:55:33;;;;;;;;;;;14.50;99.90;;;;;;5063980;28;19941;-70
2023/10/18 13:58:07;;;;;;;;;;;14.70;99.90;;;;;;5068482;28;19930;-70
2023/10/18 14:00:34;;;;;;;;;;;14.60;99.90;;;;;;5053499;28;19932;-70
2023/10/18 14:03:01;;;;;;;;;;;14.60;99.90;;;;;;5055480;28;20353;-70
2023/10/18 14:05:31;;;;;;;;;;;14.60;99.90;;;;;;5058696;28;20284;-70
2023/10/18 14:07:58;;;;;;;;;;;14.60;99.90;;;;;;5063886;28;19924;-70
2023/10/18 14:10:28;;;;;;;;;;;14.50;99.90;;;;;;5062188;28;19924;-70
2023/10/18 14:12:55;;;;;;;;;;;14.60;99.90;;;;;;5058816;28;20027;-70
2023/10/18 14:15:24;;;;;;;;;;;14.60;99.90;;;;;;5053181;28;19925;-70
2023/10/18 14:17:52;;;;;;;;;;;14.90;99.90;;;;;;5054779;28;19944;-71
2023/10/18 14:20:24;;;;;;;;;;;14.80;99.90;;;;;;5059893;28;19928;-70
2023/10/18 14:22:53;;;;;;;;;;;14.80;99.90;;;;;;5058629;28;19931;-70
2023/10/18 14:25:20;;;;;;;;;;;14.80;99.90;;;;;;5060646;28;19956;-70
2023/10/18 14:27:46;;;;;;;;;;;15.00;99.90;;;;;;5052627;28;19929;-70
2023/10/18 14:30:13;;;;;;;;;;;14.90;99.90;;;;;;5052186;28;20315;-70
2023/10/18 14:32:42;;;;;;;;;;;14.90;99.90;;;;;;5051862;28;19933;-70
2023/10/18 14:35:09;;;;;;;;;;;14.80;99.90;;;;;;5047556;28;20016;-70
2023/10/18 14:37:36;;;;;;;;;;;14.60;99.90;;;;;;5052010;28;20003;-70
2023/10/18 14:40:02;;;;;;;;;;;14.50;99.90;;;;;;5052079;28;19979;-70
2023/10/18 14:42:29;;;;;;;;;;;14.40;99.90;;;;;;5052059;28;20391;-70
2023/10/18 14:44:57;;;;;;;;;;;14.30;99.90;;;;;;5052609;28;20279;-70
2023/10/18 14:47:24;;;;;;;;;;;14.30;99.90;;;;;;5051894;28;19968;-70